Time;durP1;ratioP1;P1;durP2;ratioP2;P2;SDS_P1;SDS_P2;PMS_P1;PMS_P2;Temp;Humidity;BMP_temperature;BMP_pressure;BME280_temperature;BME280_humidity;BME280_pressure;Samples;Min_cycle;Max_cycle;Signal;HPM_P1;HPM_P2
2023/12/15 00:00:31;;;;;;;32.58;16.95;;;;;;;;;;6190033;23;20020;-84
2023/12/15 00:02:57;;;;;;;31.52;16.75;;;;;;;;;;6187145;23;20028;-84
2023/12/15 00:05:23;;;;;;;33.75;17.52;;;;;;;;;;6187457;23;20430;-84
2023/12/15 00:07:50;;;;;;;33.85;16.77;;;;;;;;;;6187169;23;20099;-84
2023/12/15 00:10:16;;;;;;;34.95;17.58;;;;;;;;;;6186967;23;20135;-84
2023/12/15 00:12:43;;;;;;;41.42;17.80;;;;;;;;;;6187008;23;20467;-84
2023/12/15 00:15:09;;;;;;;30.95;17.02;;;;;;;;;;6188000;23;20020;-84
2023/12/15 00:17:38;;;;;;;37.67;18.27;;;;;;;;;;6190687;23;20016;-84
2023/12/15 00:20:07;;;;;;;37.47;18.95;;;;;;;;;;6191635;23;20031;-84
2023/12/15 00:22:33;;;;;;;38.40;18.20;;;;;;;;;;6191521;23;20095;-84
2023/12/15 00:24:59;;;;;;;34.35;18.25;;;;;;;;;;6192630;23;20013;-84
2023/12/15 00:27:29;;;;;;;37.05;18.85;;;;;;;;;;6194086;23;20023;-84
2023/12/15 00:29:55;;;;;;;40.42;19.15;;;;;;;;;;6192865;23;20020;-84
2023/12/15 00:32:21;;;;;;;40.72;19.95;;;;;;;;;;6188569;23;20062;-84
2023/12/15 00:34:47;;;;;;;36.65;18.55;;;;;;;;;;6189656;23;20016;-84
2023/12/15 00:37:13;;;;;;;44.45;20.27;;;;;;;;;;6188684;23;20024;-84
2023/12/15 00:39:39;;;;;;;42.75;20.73;;;;;;;;;;6187992;23;20099;-84
2023/12/15 00:42:06;;;;;;;45.72;20.77;;;;;;;;;;6188221;23;20023;-84
2023/12/15 00:44:33;;;;;;;37.63;19.08;;;;;;;;;;6188750;23;20020;-84
2023/12/15 00:47:00;;;;;;;43.13;20.95;;;;;;;;;;6190139;23;20384;-84
2023/12/15 00:49:26;;;;;;;40.92;20.17;;;;;;;;;;6189956;23;20341;-84
2023/12/15 00:51:52;;;;;;;41.30;20.40;;;;;;;;;;6188326;23;20469;-84
2023/12/15 00:54:18;;;;;;;38.40;19.23;;;;;;;;;;6188808;23;20028;-83
2023/12/15 00:56:44;;;;;;;40.40;19.90;;;;;;;;;;6188914;23;20016;-84
2023/12/15 00:59:10;;;;;;;42.50;19.95;;;;;;;;;;6213019;23;20035;-84
2023/12/15 01:01:39;;;;;;;48.63;21.63;;;;;;;;;;6189484;23;20394;-84
2023/12/15 01:04:09;;;;;;;42.97;20.02;;;;;;;;;;6187863;23;20013;-84
2023/12/15 01:06:37;;;;;;;39.58;20.38;;;;;;;;;;6188867;23;20028;-84
2023/12/15 01:09:04;;;;;;;48.80;21.27;;;;;;;;;;6188617;23;20020;-84
2023/12/15 01:11:30;;;;;;;48.75;20.67;;;;;;;;;;6193225;23;20024;-84
2023/12/15 01:13:56;;;;;;;48.88;20.42;;;;;;;;;;6186413;23;20337;-84
2023/12/15 01:16:22;;;;;;;52.38;20.52;;;;;;;;;;6186622;23;20020;-84
2023/12/15 01:18:48;;;;;;;47.13;20.48;;;;;;;;;;6188514;23;20024;-84
2023/12/15 01:21:14;;;;;;;44.92;20.80;;;;;;;;;;6187237;23;20094;-84
2023/12/15 01:23:41;;;;;;;43.05;19.17;;;;;;;;;;6188205;23;20095;-84
2023/12/15 01:26:07;;;;;;;43.10;20.05;;;;;;;;;;6187044;23;20069;-84
2023/12/15 01:28:33;;;;;;;50.75;21.40;;;;;;;;;;6218868;23;20039;-84
2023/12/15 01:31:02;;;;;;;38.20;18.08;;;;;;;;;;6191221;23;20456;-83
2023/12/15 01:33:29;;;;;;;45.90;18.75;;;;;;;;;;6193380;23;20355;-84
2023/12/15 01:35:56;;;;;;;42.22;19.38;;;;;;;;;;6217296;23;20020;-84
2023/12/15 01:38:22;;;;;;;42.55;18.67;;;;;;;;;;6187670;23;20095;-83
2023/12/15 01:40:48;;;;;;;48.83;18.85;;;;;;;;;;6190996;23;20020;-84
2023/12/15 01:43:14;;;;;;;43.47;19.20;;;;;;;;;;6188243;23;20016;-84
2023/12/15 01:45:43;;;;;;;39.40;18.95;;;;;;;;;;6181678;23;20337;-84
2023/12/15 01:48:10;;;;;;;41.80;20.20;;;;;;;;;;6156813;23;20437;-84
2023/12/15 01:50:36;;;;;;;47.10;19.65;;;;;;;;;;6157699;23;20067;-84
2023/12/15 01:53:02;;;;;;;45.85;19.70;;;;;;;;;;6157446;23;20075;-84
2023/12/15 01:55:28;;;;;;;45.03;18.65;;;;;;;;;;6157167;23;20029;-84
2023/12/15 01:57:54;;;;;;;41.10;18.15;;;;;;;;;;6157405;23;20028;-83
2023/12/15 02:00:20;;;;;;;38.30;17.77;;;;;;;;;;6158331;23;20069;-83
2023/12/15 02:02:46;;;;;;;41.83;18.80;;;;;;;;;;6161254;23;20012;-84
2023/12/15 02:05:13;;;;;;;39.33;18.85;;;;;;;;;;6212685;23;20092;-83
2023/12/15 02:07:40;;;;;;;46.38;18.77;;;;;;;;;;6158851;23;20071;-84
2023/12/15 02:10:06;;;;;;;39.13;18.70;;;;;;;;;;6156762;23;20027;-84
2023/12/15 02:12:32;;;;;;;43.13;18.10;;;;;;;;;;6156724;23;20021;-83
2023/12/15 02:14:58;;;;;;;39.42;16.38;;;;;;;;;;6160636;23;20401;-83
2023/12/15 02:17:24;;;;;;;33.35;15.88;;;;;;;;;;6163202;23;20028;-84
2023/12/15 02:19:50;;;;;;;35.50;16.08;;;;;;;;;;6162047;23;20012;-83
2023/12/15 02:22:16;;;;;;;28.00;15.02;;;;;;;;;;6161948;23;20023;-83
2023/12/15 02:24:42;;;;;;;34.40;15.68;;;;;;;;;;6161341;23;20100;-83
2023/12/15 02:27:08;;;;;;;31.80;14.55;;;;;;;;;;6161579;23;20060;-83
2023/12/15 02:29:35;;;;;;;37.17;14.80;;;;;;;;;;6160449;23;20021;-84
2023/12/15 02:32:01;;;;;;;32.83;14.90;;;;;;;;;;6158124;23;20021;-84
2023/12/15 02:34:27;;;;;;;30.35;13.48;;;;;;;;;;6158642;23;20048;-84
2023/12/15 02:36:53;;;;;;;27.27;14.32;;;;;;;;;;6158343;23;20021;-84
2023/12/15 02:39:19;;;;;;;30.25;14.70;;;;;;;;;;6158882;23;20020;-83
2023/12/15 02:41:55;;;;;;;33.67;14.50;;;;;;;;;;6156307;23;20066;-83
2023/12/15 02:44:21;;;;;;;32.28;14.90;;;;;;;;;;6156659;23;20012;-83
2023/12/15 02:46:47;;;;;;;33.97;14.50;;;;;;;;;;6176288;23;20366;-83
2023/12/15 02:49:18;;;;;;;33.60;14.75;;;;;;;;;;6188006;23;20024;-84
2023/12/15 02:51:47;;;;;;;30.13;13.63;;;;;;;;;;6189431;23;20034;-84
2023/12/15 02:54:14;;;;;;;31.35;13.90;;;;;;;;;;6188998;23;20123;-83
2023/12/15 02:56:40;;;;;;;31.85;12.75;;;;;;;;;;6187490;23;20074;-84
2023/12/15 02:59:06;;;;;;;28.75;13.05;;;;;;;;;;6187552;23;20023;-83
2023/12/15 03:01:32;;;;;;;31.13;13.52;;;;;;;;;;6188665;23;20020;-84
2023/12/15 03:03:58;;;;;;;32.10;13.05;;;;;;;;;;6191056;23;20024;-84
2023/12/15 03:06:24;;;;;;;32.17;13.93;;;;;;;;;;6187513;23;20062;-84
2023/12/15 03:08:50;;;;;;;26.52;12.32;;;;;;;;;;6213322;23;20077;-84
2023/12/15 03:11:16;;;;;;;30.85;12.65;;;;;;;;;;6188487;23;20035;-84
2023/12/15 03:13:42;;;;;;;33.67;13.95;;;;;;;;;;6213117;23;20017;-84
2023/12/15 03:16:12;;;;;;;33.38;13.68;;;;;;;;;;6189585;23;20028;-84
2023/12/15 03:18:39;;;;;;;31.70;13.10;;;;;;;;;;6189239;23;20024;-84
2023/12/15 03:21:05;;;;;;;34.63;13.68;;;;;;;;;;6188822;23;20424;-83
2023/12/15 03:23:31;;;;;;;35.13;13.45;;;;;;;;;;6188539;23;20016;-84
2023/12/15 03:25:58;;;;;;;31.20;12.90;;;;;;;;;;6189048;23;20023;-83
2023/12/15 03:28:24;;;;;;;28.48;12.38;;;;;;;;;;6191566;23;20464;-84
2023/12/15 03:30:50;;;;;;;31.80;12.52;;;;;;;;;;6192791;23;20024;-83
2023/12/15 03:33:16;;;;;;;26.38;11.43;;;;;;;;;;6191142;23;20032;-84
2023/12/15 03:35:42;;;;;;;29.17;12.95;;;;;;;;;;6191583;23;20043;-83
2023/12/15 03:38:09;;;;;;;25.85;11.48;;;;;;;;;;6217618;23;20024;-83
2023/12/15 03:40:35;;;;;;;25.40;11.02;;;;;;;;;;6193193;23;20074;-83
2023/12/15 03:43:01;;;;;;;24.13;11.40;;;;;;;;;;6192436;23;20119;-84
2023/12/15 03:45:28;;;;;;;27.45;10.88;;;;;;;;;;6217086;23;20078;-83
2023/12/15 03:47:54;;;;;;;25.50;10.77;;;;;;;;;;6217764;23;20016;-83
2023/12/15 03:50:20;;;;;;;28.60;10.98;;;;;;;;;;6217134;23;20016;-84
2023/12/15 03:52:46;;;;;;;27.25;11.23;;;;;;;;;;6191749;23;20051;-84
2023/12/15 03:55:12;;;;;;;31.70;10.95;;;;;;;;;;6192458;23;20020;-83
2023/12/15 03:57:38;;;;;;;26.25;10.57;;;;;;;;;;6217889;23;20020;-83
2023/12/15 04:00:07;;;;;;;28.05;11.27;;;;;;;;;;6192489;23;20086;-83
2023/12/15 04:02:34;;;;;;;28.42;10.75;;;;;;;;;;6192223;23;20024;-84
2023/12/15 04:05:00;;;;;;;24.48;9.32;;;;;;;;;;6192709;23;20113;-84
2023/12/15 04:07:26;;;;;;;28.10;9.90;;;;;;;;;;6192275;23;20555;-84
2023/12/15 04:09:52;;;;;;;23.02;9.00;;;;;;;;;;6192386;23;20017;-84
2023/12/15 04:12:18;;;;;;;26.50;9.18;;;;;;;;;;6192560;23;20031;-83
2023/12/15 04:14:45;;;;;;;26.42;10.13;;;;;;;;;;6217221;23;20097;-83
2023/12/15 04:17:11;;;;;;;31.17;9.52;;;;;;;;;;6217703;23;20026;-83
2023/12/15 04:19:37;;;;;;;24.92;8.50;;;;;;;;;;6191902;23;20425;-83
2023/12/15 04:22:03;;;;;;;27.60;9.55;;;;;;;;;;6191938;23;20072;-84
2023/12/15 04:24:29;;;;;;;25.42;8.65;;;;;;;;;;6192437;23;20020;-83
2023/12/15 04:26:55;;;;;;;29.25;9.07;;;;;;;;;;6191996;23;20483;-83
2023/12/15 04:29:22;;;;;;;33.85;8.98;;;;;;;;;;6189581;23;20035;-83
2023/12/15 04:31:48;;;;;;;26.20;9.13;;;;;;;;;;6188817;23;20024;-83
2023/12/15 04:34:14;;;;;;;23.83;8.32;;;;;;;;;;6189047;23;20530;-83
2023/12/15 04:36:40;;;;;;;21.75;7.85;;;;;;;;;;6188664;23;20066;-83
2023/12/15 04:39:07;;;;;;;23.75;9.05;;;;;;;;;;6188752;23;20394;-84
2023/12/15 04:41:33;;;;;;;25.55;8.48;;;;;;;;;;6188256;23;20395;-83
2023/12/15 04:43:59;;;;;;;28.10;9.45;;;;;;;;;;6188183;23;20020;-83
2023/12/15 04:46:26;;;;;;;20.52;8.23;;;;;;;;;;6190069;23;20027;-83
2023/12/15 04:48:52;;;;;;;26.13;8.20;;;;;;;;;;6187650;23;20020;-83
2023/12/15 04:51:18;;;;;;;31.75;8.73;;;;;;;;;;6187511;23;20027;-83
2023/12/15 04:53:47;;;;;;;25.98;8.25;;;;;;;;;;6188213;23;20469;-84
2023/12/15 04:56:13;;;;;;;27.58;7.70;;;;;;;;;;6187707;23;20016;-83
2023/12/15 04:58:42;;;;;;;26.90;7.72;;;;;;;;;;6212800;23;20027;-83
2023/12/15 05:01:13;;;;;;;30.80;8.43;;;;;;;;;;6199704;23;20020;-83
2023/12/15 05:03:39;;;;;;;21.48;7.30;;;;;;;;;;6207565;23;20031;-83
2023/12/15 05:06:05;;;;;;;33.42;8.40;;;;;;;;;;6205773;23;20016;-84
2023/12/15 05:08:32;;;;;;;20.58;7.03;;;;;;;;;;6221007;23;20016;-84
2023/12/15 05:10:58;;;;;;;24.95;7.47;;;;;;;;;;6188853;23;20023;-83
2023/12/15 05:13:24;;;;;;;26.83;7.07;;;;;;;;;;6190340;23;20020;-84
2023/12/15 05:15:50;;;;;;;23.95;6.57;;;;;;;;;;6188507;23;20016;-83
2023/12/15 05:18:17;;;;;;;27.92;7.07;;;;;;;;;;6188423;23;20027;-83
2023/12/15 05:20:43;;;;;;;22.13;7.00;;;;;;;;;;6189255;23;20020;-84
2023/12/15 05:23:11;;;;;;;30.77;7.07;;;;;;;;;;6191089;23;20027;-84
2023/12/15 05:25:37;;;;;;;23.05;6.10;;;;;;;;;;6188648;23;20027;-84
2023/12/15 05:28:03;;;;;;;22.20;6.60;;;;;;;;;;6214274;23;20120;-84
2023/12/15 05:30:29;;;;;;;26.52;6.53;;;;;;;;;;6216134;23;20457;-84
2023/12/15 05:32:56;;;;;;;24.67;7.13;;;;;;;;;;6217004;23;20068;-83
2023/12/15 05:35:22;;;;;;;23.20;6.90;;;;;;;;;;6192098;23;20021;-84
2023/12/15 05:37:49;;;;;;;30.48;7.78;;;;;;;;;;6192111;23;20024;-84
2023/12/15 05:40:16;;;;;;;38.15;7.97;;;;;;;;;;6192461;23;20024;-84
2023/12/15 05:42:42;;;;;;;34.30;6.78;;;;;;;;;;6191230;23;20016;-84
2023/12/15 05:45:08;;;;;;;29.00;7.82;;;;;;;;;;6192420;23;20148;-84
2023/12/15 05:47:40;;;;;;;31.88;7.43;;;;;;;;;;6192465;23;20016;-84
2023/12/15 05:50:07;;;;;;;27.10;7.13;;;;;;;;;;6193364;23;20063;-84
2023/12/15 05:52:33;;;;;;;34.20;7.75;;;;;;;;;;6195173;23;20012;-84
2023/12/15 05:54:59;;;;;;;24.38;6.65;;;;;;;;;;6195084;23;20031;-84
2023/12/15 05:57:25;;;;;;;26.92;7.00;;;;;;;;;;6196225;23;20375;-83
2023/12/15 05:59:51;;;;;;;27.25;6.53;;;;;;;;;;6194593;23;20069;-83
2023/12/15 06:02:17;;;;;;;29.15;6.53;;;;;;;;;;6194766;23;20028;-84
2023/12/15 06:04:43;;;;;;;30.38;6.68;;;;;;;;;;6220637;23;20489;-83
2023/12/15 06:07:09;;;;;;;30.95;6.15;;;;;;;;;;6196325;23;20095;-84
2023/12/15 06:09:39;;;;;;;24.25;6.60;;;;;;;;;;6196841;23;20047;-84
2023/12/15 06:12:09;;;;;;;33.03;6.28;;;;;;;;;;6196399;23;20023;-83
2023/12/15 06:14:38;;;;;;;30.05;7.18;;;;;;;;;;6221388;23;20023;-83
2023/12/15 06:17:08;;;;;;;26.55;6.32;;;;;;;;;;6195438;23;20016;-84
2023/12/15 06:19:34;;;;;;;26.42;6.15;;;;;;;;;;6195937;23;20016;-83
2023/12/15 06:22:04;;;;;;;28.27;6.57;;;;;;;;;;6195725;23;20318;-83
2023/12/15 06:24:30;;;;;;;28.83;6.47;;;;;;;;;;6219706;23;20016;-83
2023/12/15 06:26:56;;;;;;;23.45;6.65;;;;;;;;;;6195380;23;20095;-83
2023/12/15 06:29:22;;;;;;;25.80;6.20;;;;;;;;;;6194937;23;20016;-84
2023/12/15 06:31:49;;;;;;;32.42;7.28;;;;;;;;;;6194684;23;20016;-84
2023/12/15 06:34:15;;;;;;;28.33;6.95;;;;;;;;;;6193687;23;20016;-84
2023/12/15 06:36:41;;;;;;;25.02;6.63;;;;;;;;;;6194903;23;20075;-84
2023/12/15 06:39:08;;;;;;;22.75;6.15;;;;;;;;;;6194060;23;20043;-84
2023/12/15 06:41:34;;;;;;;28.58;7.10;;;;;;;;;;6194286;23;20030;-84
2023/12/15 06:44:00;;;;;;;29.00;6.75;;;;;;;;;;6194943;23;20027;-84
2023/12/15 06:46:26;;;;;;;26.13;7.00;;;;;;;;;;6219761;23;20019;-84
2023/12/15 06:48:56;;;;;;;28.45;6.30;;;;;;;;;;6195226;23;20016;-83
2023/12/15 06:51:22;;;;;;;25.80;5.93;;;;;;;;;;6195663;23;20105;-84
2023/12/15 06:53:53;;;;;;;33.13;6.35;;;;;;;;;;6195108;23;20092;-85
2023/12/15 06:56:19;;;;;;;22.60;5.50;;;;;;;;;;6194174;23;20361;-83
2023/12/15 06:58:45;;;;;;;28.50;6.35;;;;;;;;;;6220442;23;20016;-84
2023/12/15 07:01:23;;;;;;;28.52;6.82;;;;;;;;;;6194698;23;20016;-84
2023/12/15 07:04:04;;;;;;;25.60;6.03;;;;;;;;;;6197094;23;20012;-83
2023/12/15 07:06:30;;;;;;;26.83;6.43;;;;;;;;;;6193318;23;20451;-83
2023/12/15 07:09:14;;;;;;;22.60;5.75;;;;;;;;;;6192051;23;20012;-83
2023/12/15 07:12:01;;;;;;;;;;;;;;;;;;;;;
2023/12/15 07:14:58;;;;;;;28.83;6.45;;;;;;;;;;6245456;23;20015;-84
2023/12/15 07:17:35;;;;;;;30.00;6.10;;;;;;;;;;6193906;23;20016;-83
2023/12/15 07:20:04;;;;;;;27.25;5.85;;;;;;;;;;6193810;23;20099;-84
2023/12/15 07:22:30;;;;;;;27.00;6.38;;;;;;;;;;6193571;23;20034;-84
2023/12/15 07:25:09;;;;;;;30.98;5.88;;;;;;;;;;6194114;23;20118;-83
2023/12/15 07:27:35;;;;;;;30.80;6.53;;;;;;;;;;6193823;23;20017;-83
2023/12/15 07:30:01;;;;;;;27.67;5.57;;;;;;;;;;6193546;23;20020;-84
2023/12/15 07:32:27;;;;;;;24.52;6.10;;;;;;;;;;6193300;23;20326;-83
2023/12/15 07:34:58;;;;;;;26.98;6.22;;;;;;;;;;6193659;23;20012;-83
2023/12/15 07:37:32;;;;;;;31.65;5.93;;;;;;;;;;6193314;23;20062;-83
2023/12/15 07:43:34;;;;;;;26.42;6.13;;;;;;;;;;6151307;23;20025;-84
2023/12/15 07:46:18;;;;;;;24.63;6.10;;;;;;;;;;6088977;23;20045;-83
2023/12/15 07:49:02;;;;;;;22.23;5.57;;;;;;;;;;6069078;23;20030;-84
2023/12/15 07:54:37;;;;;;;;;;;;;;;;;;;;;
2023/12/15 07:57:34;;;;;;;24.30;6.10;;;;;;;;;;6096196;23;20036;-84
2023/12/15 08:00:19;;;;;;;32.65;5.95;;;;;;;;;;6016813;23;20279;-83
2023/12/15 08:06:29;;;;;;;30.67;6.78;;;;;;;;;;6109461;23;20030;-83
2023/12/15 08:09:04;;;;;;;26.00;5.82;;;;;;;;;;6097592;23;20061;-83
2023/12/15 08:12:02;;;;;;;25.00;5.40;;;;;;;;;;6099605;23;20022;-82
2023/12/15 08:14:29;;;;;;;22.13;5.75;;;;;;;;;;6098550;23;20069;-83
2023/12/15 08:17:22;;;;;;;22.13;5.70;;;;;;;;;;6115487;23;20021;-83
2023/12/15 08:19:48;;;;;;;28.10;6.40;;;;;;;;;;6105703;23;20009;-83
2023/12/15 08:22:19;;;;;;;27.77;5.93;;;;;;;;;;6105476;23;20024;-84
2023/12/15 08:24:46;;;;;;;28.30;5.38;;;;;;;;;;6118725;23;20437;-82
2023/12/15 08:27:13;;;;;;;34.33;6.10;;;;;;;;;;6169077;23;20048;-82
2023/12/15 08:29:39;;;;;;;31.58;6.53;;;;;;;;;;6167723;23;20032;-83
2023/12/15 08:32:13;;;;;;;31.27;6.25;;;;;;;;;;6190617;23;20095;-83
2023/12/15 08:34:46;;;;;;;30.40;6.35;;;;;;;;;;6168092;23;20016;-82
2023/12/15 08:37:12;;;;;;;25.02;6.32;;;;;;;;;;6168888;23;20075;-82
2023/12/15 08:39:39;;;;;;;28.17;5.28;;;;;;;;;;6191847;23;20024;-83
2023/12/15 08:42:08;;;;;;;26.48;6.72;;;;;;;;;;6167388;23;20558;-82
2023/12/15 08:44:34;;;;;;;28.63;7.10;;;;;;;;;;6167078;23;20052;-83
2023/12/15 08:47:04;;;;;;;24.02;6.40;;;;;;;;;;6164725;23;20124;-84
2023/12/15 10:04:24;;;;;;;22.73;6.22;;;;;;;;;;6236208;22;20023;-85
2023/12/15 10:07:23;;;;;;;28.35;7.07;;;;;;;;;;6192734;23;20062;-85
2023/12/15 10:13:42;;;;;;;24.73;6.88;;;;;;;;;;6153722;23;20020;-84
2023/12/15 10:16:13;;;;;;;25.40;6.07;;;;;;;;;;6104797;23;20020;-83
2023/12/15 10:18:42;;;;;;;24.33;6.10;;;;;;;;;;6166187;23;20055;-83
2023/12/15 10:21:09;;;;;;;27.58;6.18;;;;;;;;;;6194653;23;20027;-83
2023/12/15 10:23:35;;;;;;;26.58;6.40;;;;;;;;;;6193645;23;20073;-83
2023/12/15 10:26:05;;;;;;;30.17;6.22;;;;;;;;;;6194906;23;20016;-83
2023/12/15 10:28:38;;;;;;;29.33;7.53;;;;;;;;;;6194445;23;20012;-83
2023/12/15 10:31:12;;;;;;;30.27;6.32;;;;;;;;;;6195920;23;20107;-85
2023/12/15 10:33:41;;;;;;;28.13;6.40;;;;;;;;;;6194389;23;20081;-83
2023/12/15 10:36:07;;;;;;;30.65;6.25;;;;;;;;;;6218976;23;20444;-83
2023/12/15 10:38:34;;;;;;;27.88;6.30;;;;;;;;;;6193983;23;20028;-83
2023/12/15 10:41:00;;;;;;;28.88;6.63;;;;;;;;;;6193935;23;20020;-83
2023/12/15 10:43:27;;;;;;;32.03;7.07;;;;;;;;;;6193492;23;20067;-83
2023/12/15 10:45:54;;;;;;;25.83;7.10;;;;;;;;;;6192901;23;20016;-83
2023/12/15 10:48:21;;;;;;;28.42;7.05;;;;;;;;;;6194381;23;20452;-83
2023/12/15 10:50:47;;;;;;;30.08;6.20;;;;;;;;;;6193606;23;20453;-84
2023/12/15 10:53:23;;;;;;;26.00;6.72;;;;;;;;;;6194216;23;20020;-83
2023/12/15 10:55:49;;;;;;;31.95;6.78;;;;;;;;;;6193727;23;20016;-83
2023/12/15 10:58:16;;;;;;;28.48;6.35;;;;;;;;;;6193932;23;20023;-85
2023/12/15 11:01:11;;;;;;;27.35;6.30;;;;;;;;;;6192921;23;20012;-85
2023/12/15 11:04:22;;;;;;;30.15;6.70;;;;;;;;;;6024788;23;20047;-85
2023/12/15 11:07:13;;;;;;;26.75;6.43;;;;;;;;;;6113927;23;20057;-84
2023/12/15 11:10:12;;;;;;;25.05;5.97;;;;;;;;;;6190820;23;20031;-84
2023/12/15 11:15:59;;;;;;;;;;;;;;;;;;;;;
2023/12/15 11:26:23;;;;;;;31.48;7.80;;;;;;;;;;6152498;23;20041;-84
2023/12/15 11:29:20;;;;;;;25.70;6.80;;;;;;;;;;6151136;23;20024;-84
2023/12/15 11:32:06;;;;;;;32.58;7.95;;;;;;;;;;6102792;23;20041;-84
2023/12/15 11:34:39;;;;;;;32.75;7.47;;;;;;;;;;6121710;23;20032;-83
2023/12/15 11:37:32;;;;;;;32.20;6.35;;;;;;;;;;6098864;23;20109;-86
2023/12/15 11:43:49;;;;;;;21.05;5.65;;;;;;;;;;6125176;23;20410;-84
2023/12/15 11:46:36;;;;;;;30.15;6.47;;;;;;;;;;6173473;23;20472;-84
2023/12/15 11:49:08;;;;;;;31.52;5.97;;;;;;;;;;6182264;23;20029;-83
2023/12/15 11:51:50;;;;;;;25.70;6.32;;;;;;;;;;6184481;23;20027;-84
2023/12/15 11:54:31;;;;;;;28.75;6.70;;;;;;;;;;6191125;23;20024;-83
2023/12/15 11:57:02;;;;;;;27.77;7.20;;;;;;;;;;6189965;23;20134;-84
2023/12/15 11:59:36;;;;;;;24.70;5.82;;;;;;;;;;6214985;23;20028;-83
2023/12/15 12:08:10;;;;;;;23.42;5.85;;;;;;;;;;6183146;23;20091;-84
2023/12/15 12:10:58;;;;;;;22.75;6.38;;;;;;;;;;6189199;23;20041;-84
2023/12/15 12:13:47;;;;;;;29.27;6.60;;;;;;;;;;6135368;23;20016;-83
2023/12/15 12:16:17;;;;;;;28.38;6.03;;;;;;;;;;6173029;23;20017;-84
2023/12/15 12:19:03;;;;;;;23.50;6.30;;;;;;;;;;6191413;23;20066;-84
2023/12/15 12:21:47;;;;;;;25.10;5.72;;;;;;;;;;6193546;23;20111;-84
2023/12/15 12:24:19;;;;;;;23.83;6.13;;;;;;;;;;6191717;23;20055;-83
2023/12/15 12:26:53;;;;;;;24.50;5.97;;;;;;;;;;6192542;23;20067;-84
2023/12/15 12:29:31;;;;;;;22.17;5.82;;;;;;;;;;6192133;23;20031;-83
2023/12/15 12:32:03;;;;;;;25.73;6.40;;;;;;;;;;6192417;23;20020;-84
2023/12/15 12:38:51;;;;;;;20.85;5.18;;;;;;;;;;6153644;23;20060;-85
2023/12/15 12:48:43;;;;;;;25.40;6.07;;;;;;;;;;6037391;23;20018;-85
2023/12/15 12:51:47;;;;;;;21.23;5.55;;;;;;;;;;6037860;23;20459;-84
2023/12/15 12:54:36;;;;;;;20.27;5.15;;;;;;;;;;6011153;23;20031;-84
2023/12/15 13:03:18;;;;;;;24.30;5.28;;;;;;;;;;6122285;23;20081;-83
2023/12/15 13:05:44;;;;;;;17.23;4.78;;;;;;;;;;6074500;23;20025;-84
2023/12/15 13:08:10;;;;;;;20.80;5.00;;;;;;;;;;6109945;23;20020;-83
2023/12/15 13:10:36;;;;;;;22.95;5.65;;;;;;;;;;6195168;23;20404;-83
2023/12/15 13:13:06;;;;;;;22.60;5.75;;;;;;;;;;6197480;23;20094;-83
2023/12/15 13:15:32;;;;;;;18.30;4.70;;;;;;;;;;6196109;23;20310;-83
2023/12/15 13:17:59;;;;;;;17.08;4.50;;;;;;;;;;6222659;23;20016;-83
2023/12/15 13:20:28;;;;;;;20.17;4.57;;;;;;;;;;6197185;23;20086;-83
2023/12/15 13:22:56;;;;;;;17.95;4.30;;;;;;;;;;6197232;23;20016;-83
2023/12/15 13:25:23;;;;;;;16.98;4.60;;;;;;;;;;6196689;23;20114;-83
2023/12/15 13:27:52;;;;;;;20.73;5.22;;;;;;;;;;6196683;23;20020;-83
2023/12/15 13:30:19;;;;;;;22.08;4.85;;;;;;;;;;6196789;23;20390;-83
2023/12/15 13:32:45;;;;;;;19.90;4.75;;;;;;;;;;6248866;23;20063;-83
2023/12/15 13:35:11;;;;;;;23.23;5.28;;;;;;;;;;6196599;23;20031;-83
2023/12/15 13:37:38;;;;;;;19.88;6.03;;;;;;;;;;6196260;23;20039;-83
2023/12/15 13:40:05;;;;;;;16.63;5.07;;;;;;;;;;6196732;23;20453;-83
2023/12/15 13:42:31;;;;;;;14.95;4.40;;;;;;;;;;6194427;23;20020;-84
2023/12/15 13:44:57;;;;;;;17.42;4.90;;;;;;;;;;6193532;23;20055;-84
2023/12/15 13:47:24;;;;;;;22.92;5.43;;;;;;;;;;6192739;23;20012;-83
2023/12/15 13:49:50;;;;;;;18.70;4.43;;;;;;;;;;6193144;23;20062;-83
2023/12/15 13:52:16;;;;;;;19.48;4.85;;;;;;;;;;6195094;23;20031;-84
2023/12/15 13:54:43;;;;;;;24.85;5.25;;;;;;;;;;6192779;23;20092;-84
2023/12/15 13:57:09;;;;;;;28.40;5.97;;;;;;;;;;6193403;23;20012;-84
2023/12/15 13:59:38;;;;;;;21.48;4.95;;;;;;;;;;6196593;23;20016;-83
2023/12/15 14:02:04;;;;;;;17.88;5.47;;;;;;;;;;6194033;23;20386;-84
2023/12/15 14:04:31;;;;;;;18.30;5.50;;;;;;;;;;6195598;23;20105;-84
2023/12/15 14:07:06;;;;;;;24.65;5.15;;;;;;;;;;6194897;23;20016;-84
2023/12/15 14:09:36;;;;;;;16.83;5.20;;;;;;;;;;6193951;23;20060;-84
2023/12/15 14:12:02;;;;;;;24.27;5.47;;;;;;;;;;6217447;23;20339;-84
2023/12/15 14:14:28;;;;;;;19.20;4.72;;;;;;;;;;6194365;23;20416;-84
2023/12/15 14:16:55;;;;;;;13.82;4.68;;;;;;;;;;6193291;23;20318;-86
2023/12/15 14:19:21;;;;;;;19.05;5.18;;;;;;;;;;6194123;23;20302;-84
2023/12/15 14:21:48;;;;;;;20.65;5.45;;;;;;;;;;6195981;23;20012;-84
2023/12/15 14:24:17;;;;;;;14.48;4.10;;;;;;;;;;6196860;23;20387;-84
2023/12/15 14:26:43;;;;;;;21.40;4.38;;;;;;;;;;6197087;23;20032;-84
2023/12/15 14:29:09;;;;;;;24.73;4.82;;;;;;;;;;6195323;23;20099;-84
2023/12/15 14:31:35;;;;;;;17.05;4.65;;;;;;;;;;6222281;23;20027;-84
2023/12/15 14:34:01;;;;;;;17.20;4.70;;;;;;;;;;6248647;23;20020;-83
2023/12/15 14:36:28;;;;;;;20.00;5.30;;;;;;;;;;6245837;23;20012;-83
2023/12/15 14:38:56;;;;;;;19.70;5.72;;;;;;;;;;6193333;23;20050;-83
2023/12/15 14:41:27;;;;;;;22.60;6.18;;;;;;;;;;6248468;23;20008;-82
2023/12/15 14:43:53;;;;;;;17.63;4.55;;;;;;;;;;6197224;23;20020;-83
2023/12/15 14:46:22;;;;;;;15.13;4.40;;;;;;;;;;6197627;23;20026;-83
2023/12/15 14:48:48;;;;;;;17.75;4.80;;;;;;;;;;6196984;23;20027;-83
2023/12/15 14:51:14;;;;;;;19.95;4.20;;;;;;;;;;6197446;23;20023;-83
2023/12/15 14:53:40;;;;;;;21.27;4.93;;;;;;;;;;6197716;23;20016;-83
2023/12/15 14:56:10;;;;;;;19.85;4.60;;;;;;;;;;6197378;23;20052;-83
2023/12/15 14:58:36;;;;;;;17.95;4.55;;;;;;;;;;6197435;23;20016;-83
2023/12/15 15:01:03;;;;;;;15.80;4.75;;;;;;;;;;6198447;23;20020;-83
2023/12/15 15:03:33;;;;;;;18.73;4.70;;;;;;;;;;6250872;23;20092;-83
2023/12/15 15:05:59;;;;;;;20.63;5.35;;;;;;;;;;6223125;23;20477;-84
2023/12/15 15:08:25;;;;;;;16.23;4.35;;;;;;;;;;6196342;23;20146;-84
2023/12/15 15:10:51;;;;;;;17.38;5.50;;;;;;;;;;6194427;23;20024;-84
2023/12/15 15:13:17;;;;;;;18.30;4.88;;;;;;;;;;6194167;23;20410;-84
2023/12/15 15:15:43;;;;;;;18.58;5.43;;;;;;;;;;6246270;23;20017;-84
2023/12/15 15:18:09;;;;;;;21.20;7.20;;;;;;;;;;6197593;23;20103;-84
2023/12/15 15:20:35;;;;;;;32.22;8.25;;;;;;;;;;6196371;23;20013;-82
2023/12/15 15:23:01;;;;;;;25.25;6.07;;;;;;;;;;6195529;23;20031;-82
2023/12/15 15:25:27;;;;;;;16.92;5.88;;;;;;;;;;6195964;23;20012;-82
2023/12/15 15:27:53;;;;;;;24.27;5.70;;;;;;;;;;6248358;23;20074;-82
2023/12/15 15:30:20;;;;;;;15.95;5.10;;;;;;;;;;6196569;23;20051;-83
2023/12/15 15:32:52;;;;;;;15.98;5.00;;;;;;;;;;6196785;23;20473;-82
2023/12/15 15:35:18;;;;;;;22.17;5.20;;;;;;;;;;6222392;23;20020;-82
2023/12/15 15:37:47;;;;;;;19.05;5.47;;;;;;;;;;6197145;23;20016;-83
2023/12/15 15:40:13;;;;;;;19.75;5.85;;;;;;;;;;6245420;23;20016;-82
2023/12/15 15:42:39;;;;;;;22.73;5.35;;;;;;;;;;6245804;23;20016;-82
2023/12/15 15:45:05;;;;;;;21.42;5.45;;;;;;;;;;6193133;23;20086;-83
2023/12/15 15:47:31;;;;;;;21.85;6.15;;;;;;;;;;6219082;23;20073;-83
2023/12/15 15:49:57;;;;;;;19.75;6.32;;;;;;;;;;6218511;23;20353;-82
2023/12/15 15:52:25;;;;;;;23.23;5.93;;;;;;;;;;6194438;23;20089;-82
2023/12/15 15:54:51;;;;;;;18.45;6.30;;;;;;;;;;6193819;23;20079;-82
2023/12/15 15:57:17;;;;;;;18.98;6.20;;;;;;;;;;6194322;23;20373;-82
2023/12/15 15:59:43;;;;;;;22.38;6.28;;;;;;;;;;6194444;23;20051;-82
2023/12/15 16:02:12;;;;;;;22.70;5.90;;;;;;;;;;6194951;23;20012;-82
2023/12/15 16:04:38;;;;;;;26.85;6.50;;;;;;;;;;6219323;23;20086;-82
2023/12/15 16:07:04;;;;;;;23.85;7.00;;;;;;;;;;6217522;23;20016;-83
2023/12/15 16:09:30;;;;;;;25.48;6.90;;;;;;;;;;6192775;23;20101;-82
2023/12/15 16:11:57;;;;;;;24.45;8.88;;;;;;;;;;6218435;23;20449;-82
2023/12/15 16:14:23;;;;;;;25.92;9.57;;;;;;;;;;6218794;23;20016;-82
2023/12/15 16:16:49;;;;;;;30.00;8.55;;;;;;;;;;6193149;23;20067;-82
2023/12/15 16:19:15;;;;;;;24.85;7.88;;;;;;;;;;6194028;23;20074;-83
2023/12/15 16:21:41;;;;;;;25.73;8.75;;;;;;;;;;6193645;23;20024;-83
2023/12/15 16:24:08;;;;;;;26.05;8.30;;;;;;;;;;6193235;23;20032;-82
2023/12/15 16:26:34;;;;;;;32.10;8.52;;;;;;;;;;6193847;23;20020;-82
2023/12/15 16:29:00;;;;;;;20.83;5.97;;;;;;;;;;6194116;23;20016;-82
2023/12/15 16:31:26;;;;;;;23.88;8.57;;;;;;;;;;6193085;23;20012;-82
2023/12/15 16:33:53;;;;;;;25.55;6.90;;;;;;;;;;6246272;23;20016;-82
2023/12/15 16:36:23;;;;;;;25.88;7.22;;;;;;;;;;6218264;23;20032;-81
2023/12/15 16:38:49;;;;;;;34.38;10.70;;;;;;;;;;6245939;23;20019;-81
2023/12/15 16:41:25;;;;;;;28.45;8.38;;;;;;;;;;6218917;23;20083;-82
2023/12/15 16:43:51;;;;;;;23.38;7.85;;;;;;;;;;6246007;23;20044;-81
2023/12/15 16:46:17;;;;;;;24.23;7.50;;;;;;;;;;6195256;23;20017;-82